Time;durP1;ratioP1;P1;durP2;ratioP2;P2;SDS_P1;SDS_P2;PMS_P1;PMS_P2;Temp;Humidity;BMP_temperature;BMP_pressure;BME280_temperature;BME280_humidity;BME280_pressure;Samples;Min_cycle;Max_cycle;Signal;HPM_P1;HPM_P2
2024/03/23 00:01:49;;;;;;;30.50;8.37;;;;;;;;;;4990259;28;20232;-85
2024/03/23 00:04:18;;;;;;;39.10;8.77;;;;;;;;;;4990872;28;20225;-85
2024/03/23 00:06:45;;;;;;;39.80;9.53;;;;;;;;;;5008340;28;20253;-84
2024/03/23 00:09:14;;;;;;;34.47;8.30;;;;;;;;;;4993474;28;20272;-85
2024/03/23 00:11:42;;;;;;;35.87;9.10;;;;;;;;;;5009396;28;20309;-86
2024/03/23 00:14:09;;;;;;;32.90;9.17;;;;;;;;;;5017023;28;20226;-84
2024/03/23 00:16:35;;;;;;;36.90;8.07;;;;;;;;;;4994962;28;20718;-83
2024/03/23 00:19:06;;;;;;;36.90;8.27;;;;;;;;;;4989773;28;20243;-85
2024/03/23 00:21:38;;;;;;;34.00;8.77;;;;;;;;;;4972854;28;20726;-84
2024/03/23 00:24:07;;;;;;;32.90;8.33;;;;;;;;;;4998736;28;20283;-86
2024/03/23 00:26:34;;;;;;;43.20;13.73;;;;;;;;;;4990389;28;20218;-85
2024/03/23 00:29:01;;;;;;;42.20;16.83;;;;;;;;;;4990837;28;20292;-84
2024/03/23 00:31:32;;;;;;;43.53;13.37;;;;;;;;;;4974174;28;20237;-85
2024/03/23 00:33:58;;;;;;;28.47;8.00;;;;;;;;;;5007128;28;20307;-84
2024/03/23 00:36:27;;;;;;;36.47;8.47;;;;;;;;;;5002403;28;20229;-86
2024/03/23 00:38:54;;;;;;;30.97;8.90;;;;;;;;;;4970486;28;20698;-84
2024/03/23 00:41:20;;;;;;;39.17;9.03;;;;;;;;;;5000317;28;20226;-85
2024/03/23 00:43:51;;;;;;;40.03;10.93;;;;;;;;;;4985333;28;20229;-84
2024/03/23 00:46:18;;;;;;;30.13;9.33;;;;;;;;;;4997641;28;20626;-85
2024/03/23 00:48:49;;;;;;;32.33;9.23;;;;;;;;;;4999776;28;20225;-84
2024/03/23 00:51:16;;;;;;;35.17;9.80;;;;;;;;;;4984076;28;20226;-86
2024/03/23 00:53:41;;;;;;;39.27;8.80;;;;;;;;;;4970414;28;20249;-84
2024/03/23 00:56:07;;;;;;;35.93;8.30;;;;;;;;;;4985891;28;20692;-85
2024/03/23 00:58:32;;;;;;;35.57;8.33;;;;;;;;;;4969890;28;20225;-84
2024/03/23 01:01:00;;;;;;;46.33;9.20;;;;;;;;;;4989708;28;20725;-86
2024/03/23 01:03:28;;;;;;;27.17;8.10;;;;;;;;;;4979770;28;20231;-87
2024/03/23 01:05:56;;;;;;;27.03;7.80;;;;;;;;;;4992596;28;20607;-86
2024/03/23 01:08:22;;;;;;;24.90;8.10;;;;;;;;;;4990474;28;20299;-86
2024/03/23 01:10:57;;;;;;;37.77;9.13;;;;;;;;;;4984762;28;20229;-85
2024/03/23 01:13:26;;;;;;;28.47;8.07;;;;;;;;;;4976435;28;20229;-85
2024/03/23 01:15:52;;;;;;;34.73;8.27;;;;;;;;;;5009411;28;20320;-85
2024/03/23 01:18:21;;;;;;;22.80;7.50;;;;;;;;;;4978925;28;20311;-86
2024/03/23 01:20:48;;;;;;;27.37;7.83;;;;;;;;;;5003205;28;20221;-86
2024/03/23 01:23:16;;;;;;;28.33;8.33;;;;;;;;;;4960060;28;20236;-86
2024/03/23 01:25:42;;;;;;;30.87;9.10;;;;;;;;;;4977338;28;20691;-86
2024/03/23 01:28:07;;;;;;;27.37;8.13;;;;;;;;;;4958618;28;20765;-86
2024/03/23 01:30:34;;;;;;;24.83;8.43;;;;;;;;;;4992174;28;20214;-84
2024/03/23 01:32:59;;;;;;;27.37;8.20;;;;;;;;;;4976298;28;20245;-86
2024/03/23 01:35:25;;;;;;;33.23;9.57;;;;;;;;;;4971617;28;20269;-86
2024/03/23 01:37:53;;;;;;;24.57;9.00;;;;;;;;;;4977328;28;20623;-86
2024/03/23 01:40:20;;;;;;;34.73;8.80;;;;;;;;;;4978880;28;20229;-85
2024/03/23 01:42:56;;;;;;;32.57;8.93;;;;;;;;;;4942366;28;20872;-85
2024/03/23 01:45:24;;;;;;;32.60;9.30;;;;;;;;;;4996311;28;20225;-87
2024/03/23 01:47:53;;;;;;;26.77;8.83;;;;;;;;;;4966319;28;20615;-85
2024/03/23 01:50:22;;;;;;;27.53;8.43;;;;;;;;;;4951525;28;20240;-87
2024/03/23 01:52:50;;;;;;;31.23;9.93;;;;;;;;;;4966385;28;20230;-86
2024/03/23 01:55:16;;;;;;;28.03;9.20;;;;;;;;;;4982310;28;20233;-87
2024/03/23 01:57:44;;;;;;;25.70;9.27;;;;;;;;;;4946580;28;20218;-85
2024/03/23 02:00:12;;;;;;;31.43;8.80;;;;;;;;;;4975564;28;20571;-85
2024/03/23 02:02:43;;;;;;;28.90;9.60;;;;;;;;;;4985380;28;20244;-85
2024/03/23 02:05:14;;;;;;;26.00;9.27;;;;;;;;;;4969830;28;20604;-85
2024/03/23 02:07:44;;;;;;;25.00;9.10;;;;;;;;;;4983368;28;20214;-86
2024/03/23 02:10:15;;;;;;;30.87;9.77;;;;;;;;;;4961459;28;20266;-84
2024/03/23 02:12:41;;;;;;;24.17;9.33;;;;;;;;;;4961912;28;20221;-85
2024/03/23 02:15:11;;;;;;;28.53;9.50;;;;;;;;;;4988532;28;20312;-85
2024/03/23 02:17:36;;;;;;;31.13;9.50;;;;;;;;;;4993883;28;20228;-85
2024/03/23 02:20:02;;;;;;;30.20;8.83;;;;;;;;;;4977134;28;20687;-85
2024/03/23 02:22:38;;;;;;;20.53;8.80;;;;;;;;;;4977052;28;20220;-86
2024/03/23 02:25:06;;;;;;;27.97;9.27;;;;;;;;;;4973218;28;20339;-84
2024/03/23 02:27:33;;;;;;;27.37;9.40;;;;;;;;;;4965074;28;20268;-83
2024/03/23 02:30:03;;;;;;;25.27;8.63;;;;;;;;;;4976706;28;20221;-84
2024/03/23 02:32:31;;;;;;;33.60;10.23;;;;;;;;;;5004517;28;20229;-84
2024/03/23 02:34:59;;;;;;;29.20;9.87;;;;;;;;;;5007344;28;20308;-85
2024/03/23 02:37:26;;;;;;;29.70;9.80;;;;;;;;;;4974169;28;20236;-87
2024/03/23 02:39:54;;;;;;;35.67;10.27;;;;;;;;;;4963942;28;20233;-84
2024/03/23 02:42:20;;;;;;;31.00;10.33;;;;;;;;;;4977013;28;20217;-86
2024/03/23 02:44:45;;;;;;;30.87;10.40;;;;;;;;;;4982623;28;20226;-87
2024/03/23 02:47:13;;;;;;;30.03;10.70;;;;;;;;;;4976271;28;20290;-87
2024/03/23 02:49:41;;;;;;;26.63;10.40;;;;;;;;;;4966314;28;20645;-85
2024/03/23 02:52:09;;;;;;;26.57;9.70;;;;;;;;;;4975005;28;20245;-85
2024/03/23 02:54:37;;;;;;;27.37;9.77;;;;;;;;;;4977399;28;20229;-86
2024/03/23 02:57:08;;;;;;;25.97;9.53;;;;;;;;;;4976995;28;20308;-87
2024/03/23 02:59:34;;;;;;;27.97;10.17;;;;;;;;;;4993391;28;20218;-85
2024/03/23 03:02:01;;;;;;;30.53;10.33;;;;;;;;;;4977385;28;20225;-85
2024/03/23 03:04:29;;;;;;;24.20;9.53;;;;;;;;;;5010867;28;20228;-86
2024/03/23 03:06:55;;;;;;;25.40;9.63;;;;;;;;;;4982606;28;20308;-85
2024/03/23 03:09:23;;;;;;;33.83;10.53;;;;;;;;;;4992807;28;20225;-85
2024/03/23 03:11:49;;;;;;;31.50;10.80;;;;;;;;;;5002670;28;20857;-84
2024/03/23 03:14:16;;;;;;;28.27;9.67;;;;;;;;;;4986120;28;20243;-85
2024/03/23 03:16:44;;;;;;;28.47;10.00;;;;;;;;;;5012127;28;20221;-86
2024/03/23 03:19:12;;;;;;;23.90;9.67;;;;;;;;;;4975051;28;20217;-84
2024/03/23 03:21:42;;;;;;;24.43;9.93;;;;;;;;;;4959790;28;20213;-86
2024/03/23 03:24:10;;;;;;;25.53;9.87;;;;;;;;;;4990044;28;20334;-84
2024/03/23 03:26:38;;;;;;;22.97;9.40;;;;;;;;;;4956960;28;20218;-85
2024/03/23 03:29:05;;;;;;;18.00;9.47;;;;;;;;;;4959745;28;20907;-86
2024/03/23 03:31:33;;;;;;;18.47;9.43;;;;;;;;;;4961003;28;20272;-85
2024/03/23 03:34:03;;;;;;;23.83;9.60;;;;;;;;;;4974706;28;20652;-84
2024/03/23 03:36:31;;;;;;;19.80;9.63;;;;;;;;;;4971201;28;20217;-86
2024/03/23 03:38:56;;;;;;;22.97;10.20;;;;;;;;;;4988956;28;20964;-85
2024/03/23 03:41:22;;;;;;;22.80;8.50;;;;;;;;;;4996087;28;20224;-87
2024/03/23 03:43:47;;;;;;;17.40;8.83;;;;;;;;;;4972567;28;20225;-85
2024/03/23 03:46:15;;;;;;;27.13;9.60;;;;;;;;;;4972661;28;20222;-86
2024/03/23 03:48:40;;;;;;;26.33;9.40;;;;;;;;;;4981021;28;20333;-85
2024/03/23 03:51:06;;;;;;;24.27;9.77;;;;;;;;;;4983291;28;20231;-86
2024/03/23 03:53:31;;;;;;;27.40;9.87;;;;;;;;;;4994857;28;20304;-85
2024/03/23 03:56:03;;;;;;;26.93;9.27;;;;;;;;;;4953622;28;20243;-84
2024/03/23 04:02:16;;;;;;;26.57;9.13;;;;;;;;;;5003114;28;20899;-85
2024/03/23 04:04:44;;;;;;;21.27;8.77;;;;;;;;;;4990043;28;20238;-85
2024/03/23 04:07:10;;;;;;;27.33;9.17;;;;;;;;;;4990391;28;20221;-87
2024/03/23 04:09:38;;;;;;;32.70;9.63;;;;;;;;;;4966646;28;20224;-86
2024/03/23 04:12:03;;;;;;;30.13;10.10;;;;;;;;;;4992390;28;20236;-86
2024/03/23 04:14:29;;;;;;;32.67;10.00;;;;;;;;;;4992536;28;20234;-86
2024/03/23 04:16:55;;;;;;;33.00;10.43;;;;;;;;;;4977117;28;20237;-86
2024/03/23 04:19:21;;;;;;;32.27;9.60;;;;;;;;;;4967436;28;20224;-84
2024/03/23 04:21:46;;;;;;;29.00;9.37;;;;;;;;;;4986954;28;20279;-86
2024/03/23 04:24:12;;;;;;;29.20;9.23;;;;;;;;;;5016758;28;20236;-86
2024/03/23 04:26:41;;;;;;;27.20;8.60;;;;;;;;;;4972617;28;20229;-84
2024/03/23 04:29:07;;;;;;;28.43;8.87;;;;;;;;;;4986810;28;20232;-85
2024/03/23 04:31:34;;;;;;;30.63;8.70;;;;;;;;;;4987107;28;20213;-86
2024/03/23 04:34:01;;;;;;;29.67;8.90;;;;;;;;;;4992232;28;20234;-87
2024/03/23 04:36:26;;;;;;;30.03;8.63;;;;;;;;;;4987027;28;20610;-86
2024/03/23 04:38:55;;;;;;;27.80;8.47;;;;;;;;;;4956589;28;20253;-86
2024/03/23 04:41:23;;;;;;;28.30;7.97;;;;;;;;;;4990828;28;20241;-86
2024/03/23 04:43:51;;;;;;;24.53;8.20;;;;;;;;;;4973939;28;20699;-84
2024/03/23 04:46:20;;;;;;;31.90;8.73;;;;;;;;;;4976368;28;20734;-85
2024/03/23 04:48:51;;;;;;;33.10;9.40;;;;;;;;;;4972563;28;20228;-85
2024/03/23 04:51:21;;;;;;;32.90;9.00;;;;;;;;;;4975754;28;20221;-85
2024/03/23 04:53:48;;;;;;;27.90;8.27;;;;;;;;;;4976717;28;20236;-84
2024/03/23 04:56:14;;;;;;;31.80;8.57;;;;;;;;;;4976051;28;20217;-85
2024/03/23 04:58:40;;;;;;;23.83;7.83;;;;;;;;;;4991489;28;20271;-86
2024/03/23 05:01:05;;;;;;;28.97;8.53;;;;;;;;;;4960901;28;20686;-87
2024/03/23 05:03:33;;;;;;;28.67;9.03;;;;;;;;;;5012180;28;20221;-84
2024/03/23 05:06:01;;;;;;;28.63;8.70;;;;;;;;;;4997750;28;20281;-85
2024/03/23 05:08:28;;;;;;;29.53;8.20;;;;;;;;;;5011033;28;20613;-85
2024/03/23 05:10:56;;;;;;;28.60;8.50;;;;;;;;;;4983868;28;20229;-84
2024/03/23 05:13:24;;;;;;;35.37;8.93;;;;;;;;;;5002958;28;20324;-83
2024/03/23 05:15:58;;;;;;;35.23;9.00;;;;;;;;;;5001282;28;20228;-86
2024/03/23 05:18:28;;;;;;;32.03;8.67;;;;;;;;;;4997905;28;20279;-84
2024/03/23 05:20:57;;;;;;;32.63;8.50;;;;;;;;;;4982233;28;20500;-86
2024/03/23 05:23:23;;;;;;;27.23;7.67;;;;;;;;;;4975818;28;23866;-84
2024/03/23 05:25:49;;;;;;;33.00;8.80;;;;;;;;;;4981376;28;20714;-83
2024/03/23 05:28:14;;;;;;;34.20;8.70;;;;;;;;;;4998302;28;20236;-84
2024/03/23 05:30:42;;;;;;;31.73;8.37;;;;;;;;;;4986252;28;20213;-85
2024/03/23 05:33:10;;;;;;;33.90;8.53;;;;;;;;;;4987139;28;20308;-86
2024/03/23 05:35:35;;;;;;;24.90;8.20;;;;;;;;;;4999727;28;20241;-85
2024/03/23 05:38:01;;;;;;;33.10;8.63;;;;;;;;;;4980301;28;20755;-85
2024/03/23 05:40:26;;;;;;;27.27;8.60;;;;;;;;;;4980689;28;20232;-86
2024/03/23 05:42:58;;;;;;;34.37;8.20;;;;;;;;;;4982068;28;20221;-85
2024/03/23 05:45:26;;;;;;;30.73;8.27;;;;;;;;;;4998943;28;20710;-85
2024/03/23 05:47:54;;;;;;;28.53;7.90;;;;;;;;;;5027671;28;20239;-86
2024/03/23 05:50:22;;;;;;;33.50;8.23;;;;;;;;;;4954823;28;20221;-84
2024/03/23 05:52:47;;;;;;;27.30;7.87;;;;;;;;;;4995057;28;20252;-86
2024/03/23 05:55:15;;;;;;;33.83;8.90;;;;;;;;;;5006332;28;20240;-83
2024/03/23 05:57:41;;;;;;;33.97;8.50;;;;;;;;;;4980023;28;20218;-85
2024/03/23 06:00:15;;;;;;;28.07;8.40;;;;;;;;;;4964669;28;20228;-84
2024/03/23 06:02:46;;;;;;;34.87;8.63;;;;;;;;;;4964660;28;20633;-83
2024/03/23 06:05:14;;;;;;;35.03;7.97;;;;;;;;;;4996310;28;20716;-83
2024/03/23 06:07:40;;;;;;;33.53;8.47;;;;;;;;;;4989614;28;21355;-85
2024/03/23 06:10:05;;;;;;;33.50;8.57;;;;;;;;;;4983273;28;20786;-84
2024/03/23 06:12:32;;;;;;;27.83;8.43;;;;;;;;;;4987061;28;20311;-87
2024/03/23 06:14:57;;;;;;;23.37;7.90;;;;;;;;;;5014738;28;20897;-84
2024/03/23 06:17:25;;;;;;;29.10;8.63;;;;;;;;;;4962051;28;20217;-85
2024/03/23 06:19:51;;;;;;;32.17;8.23;;;;;;;;;;4984717;28;20232;-86
2024/03/23 06:22:20;;;;;;;28.67;8.47;;;;;;;;;;4979060;28;20218;-85
2024/03/23 06:24:46;;;;;;;30.63;8.97;;;;;;;;;;4982302;28;20255;-85
2024/03/23 06:27:13;;;;;;;35.57;8.83;;;;;;;;;;4989090;28;20221;-85
2024/03/23 06:29:39;;;;;;;34.30;8.40;;;;;;;;;;4970239;28;20221;-85
2024/03/23 06:32:04;;;;;;;28.43;8.53;;;;;;;;;;4978556;28;20351;-85
2024/03/23 06:34:30;;;;;;;31.47;9.20;;;;;;;;;;4972647;28;20222;-85
2024/03/23 06:36:55;;;;;;;36.80;9.30;;;;;;;;;;4975504;28;20695;-86
2024/03/23 06:39:23;;;;;;;29.97;8.20;;;;;;;;;;5003473;28;20730;-85
2024/03/23 06:41:53;;;;;;;29.87;8.00;;;;;;;;;;5010243;28;20313;-84
2024/03/23 06:44:22;;;;;;;25.93;7.43;;;;;;;;;;4962890;28;20233;-85
2024/03/23 06:46:50;;;;;;;26.53;8.83;;;;;;;;;;4968860;28;20272;-86
2024/03/23 06:49:19;;;;;;;25.73;8.90;;;;;;;;;;5010191;28;20685;-85
2024/03/23 06:51:45;;;;;;;28.40;8.43;;;;;;;;;;5014693;28;20224;-84
2024/03/23 06:54:14;;;;;;;29.47;7.87;;;;;;;;;;4975530;28;20230;-85
2024/03/23 06:56:40;;;;;;;31.23;7.27;;;;;;;;;;5010687;28;20231;-85
2024/03/23 06:59:07;;;;;;;20.30;7.37;;;;;;;;;;4976455;28;20629;-84
2024/03/23 07:01:35;;;;;;;23.60;6.77;;;;;;;;;;4988724;28;20702;-85
2024/03/23 07:04:03;;;;;;;25.40;6.03;;;;;;;;;;4982924;28;20220;-83
2024/03/23 07:06:30;;;;;;;27.40;6.67;;;;;;;;;;4998965;28;20230;-84
2024/03/23 07:08:55;;;;;;;20.83;6.47;;;;;;;;;;4996877;28;20702;-84
2024/03/23 07:11:21;;;;;;;22.83;6.03;;;;;;;;;;4994251;28;20217;-82
2024/03/23 07:13:49;;;;;;;20.50;5.63;;;;;;;;;;4992873;28;20322;-85
2024/03/23 07:16:17;;;;;;;27.97;6.17;;;;;;;;;;5001060;28;20574;-86
2024/03/23 07:18:42;;;;;;;18.77;5.60;;;;;;;;;;4985546;28;20248;-86
2024/03/23 07:21:08;;;;;;;22.27;5.70;;;;;;;;;;4976248;28;20227;-84
2024/03/23 07:23:36;;;;;;;21.20;5.47;;;;;;;;;;4988008;28;20248;-84
2024/03/23 07:26:03;;;;;;;22.93;5.87;;;;;;;;;;4992358;28;20624;-82
2024/03/23 07:28:32;;;;;;;20.33;6.10;;;;;;;;;;5011756;28;20225;-83
2024/03/23 07:31:10;;;;;;;23.13;5.57;;;;;;;;;;5011706;28;20601;-83
2024/03/23 07:33:45;;;;;;;19.30;5.20;;;;;;;;;;5006425;28;20221;-83
2024/03/23 07:36:13;;;;;;;19.40;5.37;;;;;;;;;;5011286;28;20225;-87
2024/03/23 07:38:42;;;;;;;19.20;5.60;;;;;;;;;;5008092;28;20235;-83
2024/03/23 07:41:20;;;;;;;18.03;5.23;;;;;;;;;;4961212;28;20229;-83
2024/03/23 07:43:51;;;;;;;17.10;5.43;;;;;;;;;;4999463;28;20221;-85
2024/03/23 07:46:20;;;;;;;22.83;5.87;;;;;;;;;;4996848;28;20232;-83
2024/03/23 07:48:45;;;;;;;21.97;5.40;;;;;;;;;;5008012;28;20213;-84
2024/03/23 07:51:22;;;;;;;22.03;5.27;;;;;;;;;;4970759;28;20229;-84
2024/03/23 07:53:48;;;;;;;21.30;5.33;;;;;;;;;;4957576;28;20225;-85
2024/03/23 07:56:15;;;;;;;21.03;4.90;;;;;;;;;;4968124;28;20240;-82
2024/03/23 07:58:40;;;;;;;24.50;5.67;;;;;;;;;;4992988;28;20225;-84
2024/03/23 08:01:14;;;;;;;16.17;5.03;;;;;;;;;;4978609;28;20336;-86
2024/03/23 08:03:40;;;;;;;19.87;4.37;;;;;;;;;;4987214;28;20308;-84
2024/03/23 08:06:13;;;;;;;15.83;5.07;;;;;;;;;;4999053;28;20309;-83
2024/03/23 08:08:39;;;;;;;20.87;4.73;;;;;;;;;;4996254;28;20249;-84
2024/03/23 08:11:09;;;;;;;17.53;5.17;;;;;;;;;;4999217;28;20313;-85
2024/03/23 08:13:34;;;;;;;17.50;4.97;;;;;;;;;;4964451;28;20713;-84
2024/03/23 08:16:01;;;;;;;17.93;5.00;;;;;;;;;;4958498;28;20253;-85
2024/03/23 08:18:29;;;;;;;15.23;4.33;;;;;;;;;;4985092;28;20225;-88
2024/03/23 08:21:06;;;;;;;19.43;4.37;;;;;;;;;;4975343;28;20889;-87
2024/03/23 08:23:39;;;;;;;13.80;4.13;;;;;;;;;;5006361;28;20224;-87
2024/03/23 08:26:10;;;;;;;18.00;4.17;;;;;;;;;;5008133;28;20221;-87
2024/03/23 08:28:36;;;;;;;17.57;4.03;;;;;;;;;;4966618;28;20252;-87
2024/03/23 08:31:03;;;;;;;15.43;4.03;;;;;;;;;;4963680;28;20253;-87
2024/03/23 08:33:28;;;;;;;12.37;3.93;;;;;;;;;;4975448;28;20240;-88
2024/03/23 08:35:57;;;;;;;12.23;4.07;;;;;;;;;;4988074;28;20218;-89
2024/03/23 08:38:23;;;;;;;16.13;3.90;;;;;;;;;;4981248;28;20229;-88
2024/03/23 08:41:04;;;;;;;14.60;3.77;;;;;;;;;;4999722;28;20220;-88
2024/03/23 08:43:30;;;;;;;14.07;3.67;;;;;;;;;;4970499;28;20593;-89
2024/03/23 08:46:08;;;;;;;17.17;4.03;;;;;;;;;;4993127;28;20240;-88
2024/03/23 08:48:35;;;;;;;11.80;3.97;;;;;;;;;;5008457;28;20651;-88
2024/03/23 08:51:09;;;;;;;13.77;3.43;;;;;;;;;;5013474;28;20274;-87
2024/03/23 08:53:35;;;;;;;11.57;3.57;;;;;;;;;;4986759;28;20236;-86
2024/03/23 08:56:00;;;;;;;14.13;3.30;;;;;;;;;;4995105;28;20244;-87
2024/03/23 08:58:27;;;;;;;12.67;3.50;;;;;;;;;;4955471;28;20253;-88
2024/03/23 09:00:53;;;;;;;16.07;3.13;;;;;;;;;;4968573;28;20218;-88
2024/03/23 09:03:18;;;;;;;14.57;3.40;;;;;;;;;;4975673;28;20225;-87
2024/03/23 09:05:44;;;;;;;10.50;3.33;;;;;;;;;;4961927;28;20244;-86
2024/03/23 09:08:16;;;;;;;13.40;3.40;;;;;;;;;;4993600;28;20228;-88
2024/03/23 09:10:42;;;;;;;10.27;3.10;;;;;;;;;;4993932;28;20217;-87
2024/03/23 09:13:08;;;;;;;17.40;3.37;;;;;;;;;;4980251;28;20237;-86
2024/03/23 09:15:36;;;;;;;12.97;3.40;;;;;;;;;;4984140;28;20226;-86
2024/03/23 09:18:03;;;;;;;10.63;3.17;;;;;;;;;;4990906;28;20262;-86
2024/03/23 09:20:36;;;;;;;11.40;3.60;;;;;;;;;;4987299;28;20399;-88
2024/03/23 09:23:04;;;;;;;13.77;3.37;;;;;;;;;;4975748;28;20222;-87
2024/03/23 09:25:32;;;;;;;11.93;3.17;;;;;;;;;;5007625;28;20237;-87
2024/03/23 09:28:00;;;;;;;14.93;3.30;;;;;;;;;;5003892;28;20240;-86
2024/03/23 09:30:28;;;;;;;9.53;3.50;;;;;;;;;;5002980;28;20241;-85
2024/03/23 09:32:57;;;;;;;13.03;3.50;;;;;;;;;;5003323;28;20786;-85
2024/03/23 09:35:24;;;;;;;12.87;3.90;;;;;;;;;;5002069;28;20226;-85
2024/03/23 09:37:50;;;;;;;8.70;2.53;;;;;;;;;;4991044;28;20229;-85
2024/03/23 09:40:23;;;;;;;11.63;2.93;;;;;;;;;;4974140;28;20686;-87
2024/03/23 09:42:52;;;;;;;8.00;2.57;;;;;;;;;;4989323;28;20217;-86
2024/03/23 09:45:21;;;;;;;6.60;1.90;;;;;;;;;;4973177;28;20238;-87
2024/03/23 09:47:51;;;;;;;9.53;3.03;;;;;;;;;;4974031;28;20607;-86
2024/03/23 09:50:16;;;;;;;7.67;1.97;;;;;;;;;;4966179;28;20218;-86
2024/03/23 09:52:50;;;;;;;5.90;2.50;;;;;;;;;;5006205;28;20237;-87
2024/03/23 09:55:15;;;;;;;7.57;2.33;;;;;;;;;;4991345;28;20312;-86
2024/03/23 09:57:41;;;;;;;5.97;1.70;;;;;;;;;;4993978;28;20247;-86
2024/03/23 10:00:07;;;;;;;9.70;2.43;;;;;;;;;;4979872;28;20288;-87
2024/03/23 10:02:35;;;;;;;7.00;1.90;;;;;;;;;;5012073;28;20217;-88
2024/03/23 10:05:01;;;;;;;5.33;1.70;;;;;;;;;;4996997;28;20280;-88
2024/03/23 10:07:29;;;;;;;8.50;1.83;;;;;;;;;;5011549;28;20293;-85
2024/03/23 10:09:57;;;;;;;7.37;1.90;;;;;;;;;;5003089;28;20307;-87
2024/03/23 10:12:23;;;;;;;8.43;2.43;;;;;;;;;;4968916;28;20260;-86
2024/03/23 10:14:51;;;;;;;6.10;1.97;;;;;;;;;;4968681;28;20226;-85
2024/03/23 10:17:24;;;;;;;9.03;2.30;;;;;;;;;;4964195;28;20236;-85
2024/03/23 10:19:50;;;;;;;7.57;2.10;;;;;;;;;;4977154;28;20257;-85
2024/03/23 10:22:22;;;;;;;9.67;2.70;;;;;;;;;;5001197;28;20226;-87
2024/03/23 10:24:55;;;;;;;10.67;2.30;;;;;;;;;;4977407;28;20229;-86
2024/03/23 10:27:21;;;;;;;7.40;2.10;;;;;;;;;;4994451;28;20257;-85
2024/03/23 10:29:50;;;;;;;7.60;2.23;;;;;;;;;;4956926;28;20595;-88
2024/03/23 10:32:18;;;;;;;6.27;2.00;;;;;;;;;;4961193;28;20601;-87
2024/03/23 10:34:45;;;;;;;6.57;2.30;;;;;;;;;;4989617;28;20264;-87
2024/03/23 10:37:16;;;;;;;6.30;2.00;;;;;;;;;;4987301;28;20220;-87
2024/03/23 10:39:42;;;;;;;7.33;2.10;;;;;;;;;;4997337;28;20221;-88
2024/03/23 10:42:10;;;;;;;5.30;2.00;;;;;;;;;;5001445;28;20193;-85
2024/03/23 10:44:36;;;;;;;6.87;1.97;;;;;;;;;;4993172;28;20245;-87
2024/03/23 10:47:07;;;;;;;5.33;1.90;;;;;;;;;;5001598;28;20313;-87
2024/03/23 10:49:33;;;;;;;8.90;2.60;;;;;;;;;;4980104;28;20676;-85
2024/03/23 10:52:02;;;;;;;6.67;1.93;;;;;;;;;;4980656;28;20225;-86
2024/03/23 10:54:27;;;;;;;5.47;1.50;;;;;;;;;;4999508;28;20284;-86
2024/03/23 10:57:06;;;;;;;5.10;1.77;;;;;;;;;;4967987;28;20249;-88
2024/03/23 10:59:34;;;;;;;5.47;1.50;;;;;;;;;;5014780;28;20228;-88
2024/03/23 11:02:00;;;;;;;5.60;1.50;;;;;;;;;;4993871;28;20289;-86
2024/03/23 11:04:35;;;;;;;3.37;1.40;;;;;;;;;;4977688;28;20248;-87
2024/03/23 11:07:01;;;;;;;2.30;1.00;;;;;;;;;;4979462;28;20223;-86
2024/03/23 11:09:45;;;;;;;2.80;1.13;;;;;;;;;;4960457;28;20225;-87
2024/03/23 11:12:27;;;;;;;3.43;1.00;;;;;;;;;;4957433;28;20240;-88
2024/03/23 11:14:54;;;;;;;2.00;0.90;;;;;;;;;;4975319;28;20229;-88
2024/03/23 11:17:23;;;;;;;2.60;0.90;;;;;;;;;;4961591;28;20221;-88
2024/03/23 11:20:09;;;;;;;2.50;0.90;;;;;;;;;;5005362;28;20225;-87
2024/03/23 11:25:21;;;;;;;1.63;0.80;;;;;;;;;;5003365;28;20590;-86
2024/03/23 11:27:47;;;;;;;2.73;0.90;;;;;;;;;;5003246;28;20229;-86
2024/03/23 11:30:16;;;;;;;2.80;0.90;;;;;;;;;;5009159;28;20225;-87
2024/03/23 11:32:43;;;;;;;4.67;1.30;;;;;;;;;;4946182;28;20654;-85
2024/03/23 11:35:33;;;;;;;2.80;1.00;;;;;;;;;;4976606;28;20223;-84
2024/03/23 11:38:01;;;;;;;4.07;1.30;;;;;;;;;;4963555;28;20222;-84
2024/03/23 11:40:30;;;;;;;3.03;1.33;;;;;;;;;;5008267;28;20226;-87
2024/03/23 11:42:57;;;;;;;5.27;1.70;;;;;;;;;;4976749;28;20229;-86
2024/03/23 11:45:23;;;;;;;4.30;1.40;;;;;;;;;;4958312;28;20302;-89
2024/03/23 11:47:48;;;;;;;4.47;1.43;;;;;;;;;;5006393;28;20313;-87
2024/03/23 11:50:23;;;;;;;3.00;1.33;;;;;;;;;;4942795;28;20216;-87
2024/03/23 11:52:51;;;;;;;5.80;1.87;;;;;;;;;;4990216;28;20242;-88
2024/03/23 11:55:19;;;;;;;3.33;1.40;;;;;;;;;;4952971;28;20220;-87
2024/03/23 11:57:44;;;;;;;5.27;1.97;;;;;;;;;;4992922;28;20280;-89
2024/03/23 12:00:22;;;;;;;4.30;1.77;;;;;;;;;;4977383;28;20218;-87
2024/03/23 12:02:48;;;;;;;2.63;1.30;;;;;;;;;;4994161;28;20246;-88
2024/03/23 12:05:16;;;;;;;4.50;1.70;;;;;;;;;;4997255;28;20331;-88
2024/03/23 12:07:44;;;;;;;4.80;1.60;;;;;;;;;;4997780;28;20598;-87
2024/03/23 12:10:10;;;;;;;5.60;1.87;;;;;;;;;;4996599;28;20233;-88
2024/03/23 12:12:35;;;;;;;4.60;1.80;;;;;;;;;;4973483;28;20237;-87
2024/03/23 12:15:02;;;;;;;6.30;2.00;;;;;;;;;;4963196;28;20939;-88
2024/03/23 12:17:28;;;;;;;6.20;2.17;;;;;;;;;;5010920;28;20303;-87
2024/03/23 12:19:54;;;;;;;3.47;1.70;;;;;;;;;;4991369;28;20605;-87
2024/03/23 12:22:22;;;;;;;5.47;1.70;;;;;;;;;;4962831;28;20227;-87
2024/03/23 12:24:48;;;;;;;3.73;1.57;;;;;;;;;;5022229;28;20240;-85
2024/03/23 12:27:14;;;;;;;2.10;1.53;;;;;;;;;;4994998;28;20563;-86
2024/03/23 12:29:43;;;;;;;6.13;2.00;;;;;;;;;;4979250;28;20336;-87
2024/03/23 12:32:08;;;;;;;5.03;1.93;;;;;;;;;;4993073;28;20210;-88
2024/03/23 12:34:36;;;;;;;4.10;1.80;;;;;;;;;;4987755;28;20248;-88
2024/03/23 12:37:02;;;;;;;3.83;1.93;;;;;;;;;;4974115;28;20890;-88
2024/03/23 12:39:27;;;;;;;5.57;1.80;;;;;;;;;;4983337;28;20224;-87
2024/03/23 12:41:53;;;;;;;3.97;1.70;;;;;;;;;;4976041;28;20233;-88
2024/03/23 12:44:19;;;;;;;3.37;1.87;;;;;;;;;;4976227;28;20224;-87
2024/03/23 12:46:46;;;;;;;3.70;1.77;;;;;;;;;;5005650;28;20225;-85
2024/03/23 12:49:12;;;;;;;5.57;1.70;;;;;;;;;;4974261;28;20690;-86
2024/03/23 12:51:38;;;;;;;4.87;1.60;;;;;;;;;;4989138;28;20320;-84
2024/03/23 12:54:06;;;;;;;3.50;1.50;;;;;;;;;;4993263;28;20236;-85
2024/03/23 12:56:31;;;;;;;2.93;1.30;;;;;;;;;;5000640;28;20228;-89
2024/03/23 12:58:57;;;;;;;5.73;1.67;;;;;;;;;;5016429;28;20228;-89
2024/03/23 13:01:23;;;;;;;2.47;1.20;;;;;;;;;;4984073;28;22146;-89
2024/03/23 13:03:51;;;;;;;4.63;1.50;;;;;;;;;;4992229;28;20266;-87
2024/03/23 13:06:21;;;;;;;2.73;1.20;;;;;;;;;;4996252;28;20281;-88
2024/03/23 13:08:49;;;;;;;2.57;1.03;;;;;;;;;;4979513;28;20229;-87
2024/03/23 13:11:18;;;;;;;4.93;1.30;;;;;;;;;;4986792;28;20585;-86
2024/03/23 13:13:45;;;;;;;2.67;1.10;;;;;;;;;;4983677;28;20268;-87
2024/03/23 13:16:26;;;;;;;4.10;1.20;;;;;;;;;;4996913;28;20737;-88
2024/03/23 13:18:54;;;;;;;2.37;1.07;;;;;;;;;;4979879;28;20232;-87
2024/03/23 13:21:21;;;;;;;5.10;1.27;;;;;;;;;;4983024;28;20373;-87
2024/03/23 13:23:52;;;;;;;5.17;1.57;;;;;;;;;;4951645;28;20997;-88
2024/03/23 13:26:17;;;;;;;4.43;1.50;;;;;;;;;;4998707;28;20272;-87
2024/03/23 13:28:50;;;;;;;4.30;1.43;;;;;;;;;;4987714;28;20307;-87
2024/03/23 13:31:16;;;;;;;5.40;1.40;;;;;;;;;;4977617;28;20229;-88
2024/03/23 13:33:46;;;;;;;7.40;1.60;;;;;;;;;;4978469;28;20229;-87
2024/03/23 13:36:14;;;;;;;2.67;1.30;;;;;;;;;;4962984;28;20232;-88
2024/03/23 13:38:42;;;;;;;2.90;1.10;;;;;;;;;;4973348;28;20252;-86
2024/03/23 13:41:12;;;;;;;2.70;0.67;;;;;;;;;;4979044;28;20233;-87
2024/03/23 13:43:40;;;;;;;1.93;0.80;;;;;;;;;;4960828;28;20221;-88
2024/03/23 13:46:06;;;;;;;1.80;0.90;;;;;;;;;;4994740;28;20260;-86
2024/03/23 13:48:36;;;;;;;2.63;1.10;;;;;;;;;;4980375;28;20332;-85
2024/03/23 13:51:02;;;;;;;2.07;1.00;;;;;;;;;;4989799;28;20221;-86
2024/03/23 13:53:28;;;;;;;3.43;1.10;;;;;;;;;;4962892;28;20229;-86
2024/03/23 13:55:57;;;;;;;3.77;1.10;;;;;;;;;;4978200;28;20935;-86
2024/03/23 13:58:25;;;;;;;4.37;1.83;;;;;;;;;;4987596;28;20253;-89
2024/03/23 14:00:56;;;;;;;5.13;1.40;;;;;;;;;;4963808;28;20643;-87
2024/03/23 14:03:24;;;;;;;3.80;1.30;;;;;;;;;;4962598;28;20217;-86
2024/03/23 14:05:52;;;;;;;3.63;1.60;;;;;;;;;;5007728;28;20359;-87
2024/03/23 14:08:18;;;;;;;1.97;1.23;;;;;;;;;;4958826;28;20216;-87
2024/03/23 14:10:44;;;;;;;19.37;2.80;;;;;;;;;;4994355;28;20232;-88
2024/03/23 14:13:10;;;;;;;5.57;1.50;;;;;;;;;;4988430;28;20280;-88
2024/03/23 14:15:36;;;;;;;2.77;1.43;;;;;;;;;;4998506;28;20236;-88
2024/03/23 14:18:03;;;;;;;3.10;1.43;;;;;;;;;;4981377;28;20222;-89
2024/03/23 14:20:28;;;;;;;3.93;1.80;;;;;;;;;;4961157;28;20230;-87
2024/03/23 14:22:54;;;;;;;2.60;1.83;;;;;;;;;;4999677;28;20276;-87
2024/03/23 14:25:21;;;;;;;4.73;2.07;;;;;;;;;;4982245;28;20237;-87
2024/03/23 14:27:47;;;;;;;3.93;1.80;;;;;;;;;;4988692;28;20694;-85
2024/03/23 14:30:13;;;;;;;4.53;1.90;;;;;;;;;;4965330;28;20232;-86
2024/03/23 14:32:44;;;;;;;4.80;1.83;;;;;;;;;;4990273;28;20320;-87
2024/03/23 14:35:10;;;;;;;3.67;1.83;;;;;;;;;;4976158;28;20282;-86
2024/03/23 14:37:39;;;;;;;5.87;1.97;;;;;;;;;;4987450;28;20221;-86
2024/03/23 14:40:05;;;;;;;3.33;1.43;;;;;;;;;;4959683;28;20265;-88
2024/03/23 14:42:33;;;;;;;2.23;1.40;;;;;;;;;;4957143;28;20305;-86
2024/03/23 14:44:59;;;;;;;4.60;1.50;;;;;;;;;;4992903;28;20364;-85